Time;durP1;ratioP1;P1;durP2;ratioP2;P2;SDS_P1;SDS_P2;PMS_P1;PMS_P2;Temp;Humidity;BMP_temperature;BMP_pressure;BME280_temperature;BME280_humidity;BME280_pressure;Samples;Min_cycle;Max_cycle;Signal;HPM_P1;HPM_P2
2022/04/25 00:01:34;;;;;;;;;19.33;18.67;;;;;-147.59;100.00;57188.72;4997749;28;45760;-79
2022/04/25 00:03:59;;;;;;;;;16.33;15.33;;;;;-147.59;100.00;57188.72;4980140;28;45424;-79
2022/04/25 00:06:24;;;;;;;;;17.00;17.00;;;;;-147.59;100.00;57188.72;4998248;28;45306;-78
2022/04/25 00:08:50;;;;;;;;;20.67;17.67;;;;;-147.59;100.00;57188.72;4997812;28;45314;-79
2022/04/25 00:11:16;;;;;;;;;24.33;18.00;;;;;-147.59;100.00;57188.72;4997793;28;45901;-79
2022/04/25 00:13:41;;;;;;;;;19.33;18.67;;;;;-147.59;100.00;57188.72;4997954;28;45388;-78
2022/04/25 00:16:06;;;;;;;;;20.33;19.33;;;;;-147.59;100.00;57188.72;4997899;28;45374;-79
2022/04/25 00:18:32;;;;;;;;;20.33;16.33;;;;;-147.59;100.00;57188.72;4997433;28;45352;-79
2022/04/25 00:20:57;;;;;;;;;16.33;16.00;;;;;-147.59;100.00;57188.72;4997734;28;45476;-79
2022/04/25 00:23:23;;;;;;;;;16.67;16.67;;;;;-147.59;100.00;57188.72;4979596;28;45871;-78
2022/04/25 00:25:49;;;;;;;;;19.00;16.00;;;;;-147.59;100.00;57188.72;4998046;28;45450;-80
2022/04/25 00:28:14;;;;;;;;;21.00;17.33;;;;;-147.59;100.00;57188.72;5005647;28;45495;-78
2022/04/25 00:30:40;;;;;;;;;15.33;14.67;;;;;-147.59;100.00;57188.72;5017606;28;46725;-79
2022/04/25 00:33:05;;;;;;;;;14.33;13.67;;;;;-147.59;100.00;57188.72;5017425;28;45320;-79
2022/04/25 00:35:31;;;;;;;;;17.33;16.00;;;;;-147.59;100.00;57188.72;5017196;28;45396;-79
2022/04/25 00:37:56;;;;;;;;;18.67;17.67;;;;;-147.59;100.00;57188.72;5017039;28;45494;-78
2022/04/25 00:40:23;;;;;;;;;18.00;16.67;;;;;-147.59;100.00;57188.72;5017079;28;45395;-78
2022/04/25 00:42:50;;;;;;;;;17.67;16.33;;;;;-147.59;100.00;57188.72;5017238;28;45601;-79
2022/04/25 00:45:16;;;;;;;;;19.33;16.67;;;;;-147.59;100.00;57188.72;5017156;28;45339;-79
2022/04/25 00:47:43;;;;;;;;;15.33;14.33;;;;;-147.59;100.00;57188.72;5017113;28;45423;-79
2022/04/25 00:50:10;;;;;;;;;14.00;14.00;;;;;-147.59;100.00;57188.72;5016874;28;46446;-79
2022/04/25 00:52:36;;;;;;;;;14.00;14.00;;;;;-147.59;100.00;57188.72;5016808;28;45490;-78
2022/04/25 00:55:06;;;;;;;;;16.33;16.33;;;;;-147.59;100.00;57188.72;5017213;28;45449;-78
2022/04/25 00:57:31;;;;;;;;;17.67;14.33;;;;;-147.59;100.00;57188.72;5017025;28;45404;-79
2022/04/25 00:59:58;;;;;;;;;11.67;11.67;;;;;-147.59;100.00;57188.72;5015502;28;46113;-78
2022/04/25 01:02:27;;;;;;;;;17.33;17.00;;;;;-147.59;100.00;57188.72;5000722;28;45468;-79
2022/04/25 01:04:55;;;;;;;;;18.33;14.67;;;;;-147.59;100.00;57188.72;4997118;28;45720;-79
2022/04/25 01:07:21;;;;;;;;;13.67;12.67;;;;;-147.59;100.00;57188.72;4996590;28;45478;-78
2022/04/25 01:09:46;;;;;;;;;18.67;16.67;;;;;-147.59;100.00;57188.72;4996861;28;45421;-79
2022/04/25 01:12:12;;;;;;;;;14.67;13.00;;;;;-147.59;100.00;57188.72;4995417;28;45264;-79
2022/04/25 01:14:38;;;;;;;;;17.33;15.33;;;;;-147.59;100.00;57188.72;4996966;28;45247;-79
2022/04/25 01:17:04;;;;;;;;;14.67;14.67;;;;;-147.59;100.00;57188.72;4996708;28;45451;-79
2022/04/25 01:19:30;;;;;;;;;15.00;14.00;;;;;-147.59;100.00;57188.72;4996101;28;45434;-79
2022/04/25 01:22:14;;;;;;;;;17.33;15.00;;;;;-147.59;100.00;57188.72;4996162;28;45504;-78
2022/04/25 01:27:24;;;;;;;;;15.00;15.00;;;;;-147.59;100.00;57188.72;4988331;28;45397;-78
2022/04/25 01:29:52;;;;;;;;;15.00;13.00;;;;;-147.59;100.00;57188.72;4974456;28;45999;-78
2022/04/25 01:32:18;;;;;;;;;12.33;12.00;;;;;-147.59;100.00;57188.72;4977144;28;45214;-78
2022/04/25 01:34:44;;;;;;;;;17.67;15.00;;;;;-147.59;100.00;57188.72;4959316;28;45279;-78
2022/04/25 01:37:14;;;;;;;;;17.33;14.00;;;;;-147.59;100.00;57188.72;4975628;28;45775;-78
2022/04/25 01:39:48;;;;;;;;;16.33;14.67;;;;;-147.59;100.00;57188.72;4976885;28;46785;-78
2022/04/25 01:42:15;;;;;;;;;18.00;15.67;;;;;-147.59;100.00;57188.72;4976634;28;45503;-78
2022/04/25 01:44:41;;;;;;;;;16.00;11.00;;;;;-147.59;100.00;57188.72;4976858;28;45441;-78
2022/04/25 01:47:07;;;;;;;;;16.00;13.67;;;;;-147.59;100.00;57188.72;4976962;28;45654;-78
2022/04/25 01:49:34;;;;;;;;;15.67;14.33;;;;;-147.59;100.00;57188.72;4959024;28;46662;-78
2022/04/25 01:52:22;;;;;;;;;18.00;16.00;;;;;-147.59;100.00;57188.72;4976594;28;45272;-78
2022/04/25 01:54:48;;;;;;;;;18.33;13.67;;;;;-147.59;100.00;57188.72;4968701;28;45460;-78
2022/04/25 01:57:13;;;;;;;;;14.00;14.00;;;;;-147.59;100.00;57188.72;4976789;28;45489;-79
2022/04/25 01:59:39;;;;;;;;;15.00;13.67;;;;;-147.59;100.00;57188.72;4976380;28;45554;-78
2022/04/25 02:02:05;;;;;;;;;14.33;14.33;;;;;-147.59;100.00;57188.72;4990346;28;45389;-78
2022/04/25 02:04:31;;;;;;;;;14.67;12.00;;;;;-147.59;100.00;57188.72;4996100;28;46023;-78
2022/04/25 02:06:57;;;;;;;;;18.00;17.00;;;;;-147.59;100.00;57188.72;4996225;28;45407;-79
2022/04/25 02:09:23;;;;;;;;;14.67;12.67;;;;;-147.59;100.00;57188.72;4996066;28;46639;-78
2022/04/25 02:11:49;;;;;;;;;15.00;12.67;;;;;-147.59;100.00;57188.72;4996073;28;45340;-78
2022/04/25 02:14:14;;;;;;;;;18.00;14.00;;;;;-147.59;100.00;57188.72;4996135;28;45410;-78
2022/04/25 02:16:40;;;;;;;;;17.33;16.67;;;;;-147.59;100.00;57188.72;4978336;28;45298;-78
2022/04/25 02:19:06;;;;;;;;;12.33;12.00;;;;;-147.59;100.00;57188.72;4995739;28;45369;-78
2022/04/25 02:21:31;;;;;;;;;15.00;12.33;;;;;-147.59;100.00;57188.72;4996135;28;45448;-78
2022/04/25 02:23:57;;;;;;;;;15.33;15.33;;;;;-147.59;100.00;57188.72;4978385;28;45564;-78
2022/04/25 02:26:22;;;;;;;;;12.00;12.00;;;;;-147.59;100.00;57188.72;4995951;28;45587;-78
2022/04/25 02:28:48;;;;;;;;;20.00;15.67;;;;;-147.59;100.00;57188.72;4995488;28;45394;-78
2022/04/25 02:31:14;;;;;;;;;15.33;15.33;;;;;-147.59;100.00;57188.72;4978052;28;45770;-78
2022/04/25 02:33:41;;;;;;;;;13.00;13.00;;;;;-147.59;100.00;57188.72;4995553;28;45465;-78
2022/04/25 02:36:09;;;;;;;;;17.00;13.67;;;;;-147.59;100.00;57188.72;4977985;28;45451;-78
2022/04/25 02:38:36;;;;;;;;;15.33;15.33;;;;;-147.59;100.00;57188.72;4995496;28;45722;-78
2022/04/25 02:41:05;;;;;;;;;14.00;14.00;;;;;-147.59;100.00;57188.72;4998695;28;45314;-78
2022/04/25 02:43:31;;;;;;;;;15.67;15.33;;;;;-147.59;100.00;57188.72;5002123;28;45730;-78
2022/04/25 02:45:57;;;;;;;;;18.00;17.67;;;;;-147.59;100.00;57188.72;5002380;28;45352;-78
2022/04/25 02:48:22;;;;;;;;;19.33;17.00;;;;;-147.59;100.00;57188.72;5001646;28;46751;-78
2022/04/25 02:50:48;;;;;;;;;15.00;12.67;;;;;-147.59;100.00;57188.72;5002372;28;45395;-78
2022/04/25 02:53:14;;;;;;;;;17.00;16.00;;;;;-147.59;100.00;57188.72;4984457;28;45284;-78
2022/04/25 02:55:39;;;;;;;;;21.33;18.00;;;;;-147.59;100.00;57188.72;5002186;28;45338;-78
2022/04/25 02:58:04;;;;;;;;;15.00;12.33;;;;;-147.59;100.00;57188.72;5002288;28;45351;-78
2022/04/25 03:00:30;;;;;;;;;18.33;16.00;;;;;-147.59;100.00;57188.72;4984175;28;45429;-78
2022/04/25 03:02:55;;;;;;;;;18.67;15.33;;;;;-147.59;100.00;57188.72;5001864;28;45385;-78
2022/04/25 03:05:20;;;;;;;;;17.67;16.67;;;;;-147.59;100.00;57188.72;5001709;28;45785;-78
2022/04/25 03:07:46;;;;;;;;;15.33;14.33;;;;;-147.59;100.00;57188.72;5001516;28;51759;-78
2022/04/25 03:10:11;;;;;;;;;19.33;17.33;;;;;-147.59;100.00;57188.72;5001884;28;45497;-78
2022/04/25 03:12:38;;;;;;;;;17.33;16.00;;;;;-147.59;100.00;57188.72;5002142;28;45534;-78
2022/04/25 03:15:04;;;;;;;;;17.33;14.33;;;;;-147.59;100.00;57188.72;5001922;28;45444;-78
2022/04/25 03:17:30;;;;;;;;;17.00;16.00;;;;;-147.59;100.00;57188.72;5001305;28;45469;-78
2022/04/25 03:19:55;;;;;;;;;17.33;16.33;;;;;-147.59;100.00;57188.72;5001703;28;45425;-78
2022/04/25 03:22:20;;;;;;;;;21.33;19.33;;;;;-147.59;100.00;57188.72;5001940;28;45537;-76
2022/04/25 03:24:46;;;;;;;;;20.33;15.67;;;;;-147.59;100.00;57188.72;5001824;28;45654;-77
2022/04/25 03:27:11;;;;;;;;;20.67;19.67;;;;;-147.59;100.00;57188.72;5001554;28;45640;-78
2022/04/25 03:29:36;;;;;;;;;20.33;17.00;;;;;-147.59;100.00;57188.72;5001662;28;45438;-78
2022/04/25 03:32:02;;;;;;;;;16.00;16.00;;;;;-147.59;100.00;57188.72;5001597;28;45684;-78
2022/04/25 03:34:27;;;;;;;;;12.00;11.33;;;;;-147.59;100.00;57188.72;4983756;28;45618;-78
2022/04/25 03:36:55;;;;;;;;;18.33;15.33;;;;;-147.59;100.00;57188.72;5001480;28;45415;-77
2022/04/25 03:39:20;;;;;;;;;21.00;21.00;;;;;-147.59;100.00;57188.72;5001518;28;45339;-78
2022/04/25 03:41:45;;;;;;;;;16.67;16.67;;;;;-147.59;100.00;57188.72;5001570;28;45478;-77
2022/04/25 03:44:11;;;;;;;;;22.67;19.33;;;;;-147.59;100.00;57188.72;5001930;28;45342;-77
2022/04/25 03:46:36;;;;;;;;;21.33;19.00;;;;;-147.59;100.00;57188.72;5001125;28;45490;-77
2022/04/25 03:49:02;;;;;;;;;16.67;14.67;;;;;-147.59;100.00;57188.72;4983531;28;45696;-79
2022/04/25 03:51:28;;;;;;;;;21.67;19.67;;;;;-147.59;100.00;57188.72;5001227;28;45380;-80
2022/04/25 03:53:54;;;;;;;;;21.67;19.00;;;;;-147.59;100.00;57188.72;5000619;28;45349;-78
2022/04/25 03:59:03;;;;;;;;;23.00;21.67;;;;;-147.59;100.00;57188.72;4998168;28;45481;-78
2022/04/25 04:01:29;;;;;;;;;12.33;12.33;;;;;-147.59;100.00;57188.72;4997541;28;45464;-78
2022/04/25 04:03:59;;;;;;;;;19.67;18.33;;;;;-147.59;100.00;57188.72;5001695;28;45743;-78
2022/04/25 04:06:25;;;;;;;;;23.67;22.00;;;;;-147.59;100.00;57188.72;4988980;28;46157;-78
2022/04/25 04:08:50;;;;;;;;;26.33;20.67;;;;;-147.59;100.00;57188.72;5004458;28;45352;-78
2022/04/25 04:11:15;;;;;;;;;19.67;17.67;;;;;-147.59;100.00;57188.72;4997972;28;45375;-78
2022/04/25 04:13:41;;;;;;;;;22.67;20.67;;;;;-147.59;100.00;57188.72;4979693;28;45563;-78
2022/04/25 04:16:06;;;;;;;;;20.67;20.33;;;;;-147.59;100.00;57188.72;4997236;28;46236;-78
2022/04/25 04:18:31;;;;;;;;;27.33;21.00;;;;;-147.59;100.00;57188.72;4997729;28;45357;-76
2022/04/25 04:20:57;;;;;;;;;16.00;13.00;;;;;-147.59;100.00;57188.72;4997562;28;45404;-77
2022/04/25 04:23:22;;;;;;;;;16.00;15.67;;;;;-147.59;100.00;57188.72;4998014;28;45450;-76
2022/04/25 04:25:47;;;;;;;;;19.33;19.33;;;;;-147.59;100.00;57188.72;4996607;28;45481;-75
2022/04/25 04:28:13;;;;;;;;;22.00;21.00;;;;;-147.59;100.00;57188.72;5011621;28;45421;-74
2022/04/25 04:30:38;;;;;;;;;23.33;21.33;;;;;-147.59;100.00;57188.72;5016621;28;45423;-75
2022/04/25 04:33:05;;;;;;;;;26.67;24.00;;;;;-147.59;100.00;57188.72;5035029;28;45414;-74
2022/04/25 04:38:15;;;;;;;;;21.00;19.67;;;;;-147.59;100.00;57188.72;5036926;28;45392;-74
2022/04/25 04:40:40;;;;;;;;;20.00;18.67;;;;;-147.59;100.00;57188.72;5015663;28;45375;-74
2022/04/25 04:43:05;;;;;;;;;20.33;20.00;;;;;-147.59;100.00;57188.72;5017502;28;45356;-75
2022/04/25 04:45:31;;;;;;;;;19.00;19.00;;;;;-147.59;100.00;57188.72;5016493;28;45584;-74
2022/04/25 04:47:56;;;;;;;;;23.67;20.33;;;;;-147.59;100.00;57188.72;5016446;28;45413;-76
2022/04/25 04:50:22;;;;;;;;;23.00;20.33;;;;;-147.59;100.00;57188.72;5017199;28;45319;-75
2022/04/25 04:52:56;;;;;;;;;22.00;21.00;;;;;-147.59;100.00;57188.72;5016886;28;45553;-75
2022/04/25 04:55:22;;;;;;;;;24.33;20.67;;;;;-147.59;100.00;57188.72;5016749;28;46443;-75
2022/04/25 04:57:47;;;;;;;;;25.67;21.67;;;;;-147.59;100.00;57188.72;5016446;28;45430;-74
2022/04/25 05:00:15;;;;;;;;;25.00;24.67;;;;;-147.59;100.00;57188.72;5016551;28;45393;-75
2022/04/25 05:02:42;;;;;;;;;26.67;24.00;;;;;-147.59;100.00;57188.72;5027569;28;45645;-75
2022/04/25 05:05:07;;;;;;;;;24.67;21.00;;;;;-147.59;100.00;57188.72;5024076;28;45439;-75
2022/04/25 05:07:34;;;;;;;;;23.67;23.00;;;;;-147.59;100.00;57188.72;5016579;28;45547;-74
2022/04/25 05:10:00;;;;;;;;;26.00;23.67;;;;;-147.59;100.00;57188.72;5024608;28;45474;-75
2022/04/25 05:12:27;;;;;;;;;27.33;25.33;;;;;-147.59;100.00;57188.72;5035072;28;45410;-75
2022/04/25 05:14:52;;;;;;;;;27.00;22.67;;;;;-147.59;100.00;57188.72;5032558;28;46240;-74
2022/04/25 05:17:18;;;;;;;;;29.00;26.00;;;;;-147.59;100.00;57188.72;5036367;28;45855;-75
2022/04/25 05:19:43;;;;;;;;;29.00;24.67;;;;;-147.59;100.00;57188.72;5034545;28;45392;-74
2022/04/25 05:22:08;;;;;;;;;25.67;25.67;;;;;-147.59;100.00;57188.72;5018562;28;45481;-75
2022/04/25 05:24:34;;;;;;;;;26.00;24.33;;;;;-147.59;100.00;57188.72;5024106;28;46483;-75
2022/04/25 05:26:59;;;;;;;;;29.33;26.00;;;;;-147.59;100.00;57188.72;5016575;28;45263;-74
2022/04/25 05:29:24;;;;;;;;;28.67;26.33;;;;;-147.59;100.00;57188.72;4995964;28;45516;-74
2022/04/25 05:31:50;;;;;;;;;31.33;28.67;;;;;-147.59;100.00;57188.72;5002063;28;45309;-74
2022/04/25 05:34:16;;;;;;;;;25.67;24.00;;;;;-147.59;100.00;57188.72;4995174;28;45579;-74
2022/04/25 05:36:42;;;;;;;;;30.67;28.33;;;;;-147.59;100.00;57188.72;4977972;28;45543;-73
2022/04/25 05:39:08;;;;;;;;;27.00;25.67;;;;;-147.59;100.00;57188.72;4978709;28;45230;-74
2022/04/25 05:41:35;;;;;;;;;27.00;24.33;;;;;-147.59;100.00;57188.72;4996245;28;45420;-74
2022/04/25 05:44:00;;;;;;;;;26.33;26.00;;;;;-147.59;100.00;57188.72;4995756;28;46449;-74
2022/04/25 05:46:26;;;;;;;;;25.33;25.33;;;;;-147.59;100.00;57188.72;4996345;28;45430;-74
2022/04/25 05:54:19;;;;;;;;;28.33;27.33;;;;;-147.59;100.00;57188.72;4995958;28;46244;-76
2022/04/25 05:56:45;;;;;;;;;30.33;27.00;;;;;-147.59;100.00;57188.72;4995511;28;51583;-76
2022/04/25 05:59:11;;;;;;;;;31.00;29.00;;;;;-147.59;100.00;57188.72;4995957;28;45420;-75
2022/04/25 06:01:36;;;;;;;;;29.33;27.33;;;;;-147.59;100.00;57188.72;4996151;28;45548;-75
2022/04/25 06:04:01;;;;;;;;;35.67;33.00;;;;;-147.59;100.00;57188.72;4977778;28;48259;-74
2022/04/25 06:06:27;;;;;;;;;37.67;33.00;;;;;-147.59;100.00;57188.72;4996101;28;45380;-75
2022/04/25 06:08:52;;;;;;;;;35.00;31.33;;;;;-147.59;100.00;57188.72;4995792;28;45939;-75
2022/04/25 06:11:18;;;;;;;;;39.00;33.67;;;;;-147.59;100.00;57188.72;4995398;28;45365;-75
2022/04/25 06:13:44;;;;;;;;;32.67;30.33;;;;;-147.59;100.00;57188.72;4995743;28;45557;-75
2022/04/25 06:16:10;;;;;;;;;44.33;35.33;;;;;-147.59;100.00;57188.72;4994841;28;45398;-74
2022/04/25 06:18:36;;;;;;;;;35.67;34.00;;;;;-147.59;100.00;57188.72;4995944;28;45346;-74
2022/04/25 06:21:01;;;;;;;;;39.00;34.00;;;;;-147.59;100.00;57188.72;4995937;28;45362;-75
2022/04/25 06:23:26;;;;;;;;;37.00;32.33;;;;;-147.59;100.00;57188.72;4995779;28;45416;-74
2022/04/25 06:25:52;;;;;;;;;40.67;36.00;;;;;-147.59;100.00;57188.72;4995239;28;45501;-75
2022/04/25 06:28:18;;;;;;;;;39.67;32.67;;;;;-147.59;100.00;57188.72;4977840;28;45334;-75
2022/04/25 06:30:43;;;;;;;;;42.00;35.33;;;;;-147.59;100.00;57188.72;4995600;28;45627;-75
2022/04/25 06:33:09;;;;;;;;;36.33;32.00;;;;;-147.59;100.00;57188.72;4995199;28;46224;-75
2022/04/25 06:35:34;;;;;;;;;46.00;36.33;;;;;-147.59;100.00;57188.72;4995300;28;45350;-75
2022/04/25 06:37:59;;;;;;;;;41.33;37.00;;;;;-147.59;100.00;57188.72;4995487;28;45361;-75
2022/04/25 06:40:25;;;;;;;;;37.33;33.33;;;;;-147.59;100.00;57188.72;4995574;28;45407;-75
2022/04/25 06:42:55;;;;;;;;;38.67;31.00;;;;;-147.59;100.00;57188.72;4995211;28;45476;-75
2022/04/25 06:45:21;;;;;;;;;43.00;37.67;;;;;-147.59;100.00;57188.72;4995627;28;45457;-75
2022/04/25 06:47:46;;;;;;;;;42.00;35.67;;;;;-147.59;100.00;57188.72;4995676;28;45476;-75
2022/04/25 06:50:12;;;;;;;;;43.67;35.67;;;;;-147.59;100.00;57188.72;4977576;28;45559;-75
2022/04/25 06:52:38;;;;;;;;;42.67;34.33;;;;;-147.59;100.00;57188.72;4977514;28;46366;-75
2022/04/25 06:55:04;;;;;;;;;46.33;39.33;;;;;-147.59;100.00;57188.72;4994984;28;45421;-75
2022/04/25 06:57:33;;;;;;;;;44.67;39.00;;;;;-147.59;100.00;57188.72;4995576;28;45416;-75
2022/04/25 06:59:59;;;;;;;;;42.00;36.33;;;;;-147.59;100.00;57188.72;4977345;28;45786;-75
2022/04/25 07:02:24;;;;;;;;;40.67;36.33;;;;;-147.59;100.00;57188.72;4977271;28;47171;-75
2022/04/25 07:04:50;;;;;;;;;46.00;39.33;;;;;-147.59;100.00;57188.72;4995225;28;45438;-75
2022/04/25 07:07:16;;;;;;;;;42.67;36.67;;;;;-147.59;100.00;57188.72;4977463;28;45935;-75
2022/04/25 07:09:41;;;;;;;;;42.67;36.33;;;;;-147.59;100.00;57188.72;4977167;28;45463;-75
2022/04/25 07:12:07;;;;;;;;;50.00;40.00;;;;;-147.59;100.00;57188.72;4983263;28;47002;-74
2022/04/25 07:14:33;;;;;;;;;47.33;39.00;;;;;-147.59;100.00;57188.72;4957920;28;45881;-74
2022/04/25 07:17:01;;;;;;;;;43.67;39.00;;;;;-147.59;100.00;57188.72;4975491;28;45484;-74
2022/04/25 07:19:26;;;;;;;;;43.33;37.00;;;;;-147.59;100.00;57188.72;4957823;28;45401;-74
2022/04/25 07:30:04;;;;;;;;;44.00;39.33;;;;;-147.59;100.00;57188.72;4996398;28;46462;-77
2022/04/25 07:32:30;;;;;;;;;44.00;37.00;;;;;-147.59;100.00;57188.72;4997369;28;46251;-78
2022/04/25 07:34:55;;;;;;;;;41.33;35.67;;;;;-147.59;100.00;57188.72;4998446;28;45449;-74
2022/04/25 07:37:24;;;;;;;;;46.00;38.00;;;;;-147.59;100.00;57188.72;4996896;28;45542;-75
2022/04/25 07:39:50;;;;;;;;;47.00;37.00;;;;;-147.59;100.00;57188.72;4978927;28;45418;-74
2022/04/25 07:42:18;;;;;;;;;42.33;37.00;;;;;-147.59;100.00;57188.72;4995958;28;45513;-74
2022/04/25 07:44:44;;;;;;;;;36.00;32.67;;;;;-147.59;100.00;57188.72;4979000;28;46523;-74
2022/04/25 07:47:10;;;;;;;;;43.33;37.33;;;;;-147.59;100.00;57188.72;4999044;28;45329;-74
2022/04/25 07:49:35;;;;;;;;;38.00;34.00;;;;;-147.59;100.00;57188.72;5002869;28;46551;-74
2022/04/25 07:52:01;;;;;;;;;44.67;38.67;;;;;-147.59;100.00;57188.72;5004628;28;45764;-74
2022/04/25 07:54:26;;;;;;;;;45.33;39.00;;;;;-147.59;100.00;57188.72;5001818;28;45488;-74
2022/04/25 07:56:52;;;;;;;;;48.00;39.67;;;;;-147.59;100.00;57188.72;4997182;28;45687;-74
2022/04/25 07:59:19;;;;;;;;;42.67;38.33;;;;;-147.59;100.00;57188.72;4980388;28;45605;-74
2022/04/25 08:01:45;;;;;;;;;40.00;35.00;;;;;-147.59;100.00;57188.72;4995152;28;46564;-74
2022/04/25 08:04:11;;;;;;;;;47.67;38.00;;;;;-147.59;100.00;57188.72;5003392;28;45595;-74
2022/04/25 08:06:37;;;;;;;;;45.00;37.00;;;;;-147.59;100.00;57188.72;5004191;28;45557;-74
2022/04/25 08:09:03;;;;;;;;;46.33;38.67;;;;;-147.59;100.00;57188.72;4998801;28;45548;-74
2022/04/25 08:11:29;;;;;;;;;46.00;37.67;;;;;-147.59;100.00;57188.72;5003252;28;45644;-75
2022/04/25 08:19:22;;;;;;;;;45.67;38.33;;;;;-147.59;100.00;57188.72;5002029;28;45568;-74
2022/04/25 08:21:48;;;;;;;;;45.33;38.33;;;;;-147.59;100.00;57188.72;4978614;28;47271;-74
2022/04/25 08:24:14;;;;;;;;;48.00;39.00;;;;;-147.59;100.00;57188.72;4997627;28;45402;-73
2022/04/25 08:26:40;;;;;;;;;41.67;36.67;;;;;-147.59;100.00;57188.72;4996154;28;45410;-73
2022/04/25 08:29:07;;;;;;;;;43.33;37.00;;;;;-147.59;100.00;57188.72;4997195;28;45491;-73
2022/04/25 08:31:34;;;;;;;;;40.00;36.33;;;;;-147.59;100.00;57188.72;4995739;28;46473;-73
2022/04/25 08:34:02;;;;;;;;;45.00;40.00;;;;;-147.59;100.00;57188.72;4995768;28;45384;-74
2022/04/25 08:36:28;;;;;;;;;47.33;41.67;;;;;-147.59;100.00;57188.72;4978644;28;45488;-73
2022/04/25 08:38:53;;;;;;;;;42.00;36.00;;;;;-147.59;100.00;57188.72;4998683;28;45616;-74
2022/04/25 08:41:30;;;;;;;;;45.00;38.00;;;;;-147.59;100.00;57188.72;5003087;28;47344;-73
2022/04/25 08:43:56;;;;;;;;;46.00;39.00;;;;;-147.59;100.00;57188.72;5002856;28;45581;-73
2022/04/25 08:46:22;;;;;;;;;45.00;38.67;;;;;-147.59;100.00;57188.72;4996389;28;45336;-73
2022/04/25 08:48:49;;;;;;;;;42.00;36.67;;;;;-147.59;100.00;57188.72;4978652;28;45807;-73
2022/04/25 08:51:16;;;;;;;;;40.00;36.00;;;;;-147.59;100.00;57188.72;4995238;28;46435;-73
2022/04/25 08:53:43;;;;;;;;;41.00;36.67;;;;;-147.59;100.00;57188.72;4997593;28;45446;-73
2022/04/25 08:56:09;;;;;;;;;47.67;38.00;;;;;-147.59;100.00;57188.72;4997161;28;45542;-73
2022/04/25 08:58:39;;;;;;;;;39.67;34.33;;;;;-147.59;100.00;57188.72;4995872;28;45402;-73
2022/04/25 09:01:05;;;;;;;;;46.33;38.33;;;;;-147.59;100.00;57188.72;4980535;28;48930;-73
2022/04/25 09:03:30;;;;;;;;;40.67;35.33;;;;;-147.59;100.00;57188.72;4996162;28;45576;-73
2022/04/25 09:05:58;;;;;;;;;39.00;35.33;;;;;-147.59;100.00;57188.72;4995296;28;45343;-73
2022/04/25 09:08:23;;;;;;;;;47.67;39.00;;;;;-147.59;100.00;57188.72;4996150;28;45404;-74
2022/04/25 09:10:49;;;;;;;;;45.00;35.33;;;;;-147.59;100.00;57188.72;5000259;28;45429;-74
2022/04/25 09:13:15;;;;;;;;;37.33;33.67;;;;;-147.59;100.00;57188.72;5000068;28;45542;-74
2022/04/25 09:15:40;;;;;;;;;42.67;36.00;;;;;-147.59;100.00;57188.72;4982576;28;45614;-74
2022/04/25 09:18:05;;;;;;;;;41.67;36.00;;;;;-147.59;100.00;57188.72;4995936;28;45581;-74
2022/04/25 09:20:31;;;;;;;;;38.00;34.00;;;;;-147.59;100.00;57188.72;4995874;28;45401;-73
2022/04/25 09:22:57;;;;;;;;;45.33;37.67;;;;;-147.59;100.00;57188.72;4998868;28;45894;-74
2022/04/25 09:25:23;;;;;;;;;38.67;34.33;;;;;-147.59;100.00;57188.72;4995722;28;45405;-74
2022/04/25 09:28:07;;;;;;;;;40.00;34.33;;;;;-147.59;100.00;57188.72;4995926;28;45687;-74
2022/04/25 09:30:32;;;;;;;;;40.00;33.33;;;;;-147.59;100.00;57188.72;4981668;28;48159;-74
2022/04/25 09:32:57;;;;;;;;;37.67;34.67;;;;;-147.59;100.00;57188.72;4998034;28;45446;-74
2022/04/25 09:35:32;;;;;;;;;36.33;33.00;;;;;-147.59;100.00;57188.72;4994659;28;45294;-74
2022/04/25 09:38:00;;;;;;;;;36.00;34.00;;;;;-147.59;100.00;57188.72;4977861;28;45559;-75
2022/04/25 09:40:30;;;;;;;;;43.00;35.00;;;;;-147.59;100.00;57188.72;4994965;28;45444;-74
2022/04/25 09:43:14;;;;;;;;;35.67;32.00;;;;;-147.59;100.00;57188.72;4977499;28;45520;-75
2022/04/25 09:45:42;;;;;;;;;38.00;34.67;;;;;-147.59;100.00;57188.72;4995722;28;45363;-74
2022/04/25 09:48:18;;;;;;;;;40.33;36.33;;;;;-147.59;100.00;57188.72;4995273;28;45385;-75
2022/04/25 09:51:17;;;;;;;;;38.00;34.00;;;;;-147.59;100.00;57188.72;4993709;28;46018;-75
2022/04/25 09:53:50;;;;;;;;;37.33;33.00;;;;;-147.59;100.00;57188.72;4989469;28;45355;-75
2022/04/25 09:56:21;;;;;;;;;39.33;32.00;;;;;-147.59;100.00;57188.72;4996272;28;45532;-76
2022/04/25 09:59:00;;;;;;;;;44.00;35.67;;;;;-147.59;100.00;57188.72;4995174;28;45310;-74
2022/04/25 10:01:26;;;;;;;;;34.67;33.33;;;;;-147.59;100.00;57188.72;4978050;28;45584;-77
2022/04/25 10:03:51;;;;;;;;;41.67;34.67;;;;;-147.59;100.00;57188.72;4984441;28;45725;-76
2022/04/25 10:06:17;;;;;;;;;34.00;32.00;;;;;-147.59;100.00;57188.72;4990256;28;45900;-76
2022/04/25 10:08:43;;;;;;;;;39.67;35.00;;;;;-147.59;100.00;57188.72;4977043;28;45414;-80
2022/04/25 10:11:12;;;;;;;;;33.00;32.00;;;;;-147.59;100.00;57188.72;4992635;28;45453;-75
2022/04/25 10:13:38;;;;;;;;;32.00;30.33;;;;;-147.59;100.00;57188.72;4993247;28;45425;-75
2022/04/25 10:16:04;;;;;;;;;36.33;32.00;;;;;-147.59;100.00;57188.72;4976749;28;45398;-75
2022/04/25 10:18:32;;;;;;;;;34.67;32.00;;;;;-147.59;100.00;57188.72;4994512;28;45350;-75
2022/04/25 10:20:59;;;;;;;;;39.67;34.33;;;;;-147.59;100.00;57188.72;4994295;28;46518;-75
2022/04/25 10:23:25;;;;;;;;;33.67;30.33;;;;;-147.59;100.00;57188.72;4994163;28;45825;-75
2022/04/25 10:25:57;;;;;;;;;37.00;33.67;;;;;-147.59;100.00;57188.72;4999975;28;45553;-75
2022/04/25 10:28:31;;;;;;;;;35.00;31.33;;;;;-147.59;100.00;57188.72;4994337;28;46370;-75
2022/04/25 10:31:04;;;;;;;;;35.67;32.33;;;;;-147.59;100.00;57188.72;4993912;28;46356;-75
2022/04/25 10:33:48;;;;;;;;;31.67;29.00;;;;;-147.59;100.00;57188.72;4991588;28;45576;-75
2022/04/25 10:36:38;;;;;;;;;28.67;25.67;;;;;-147.59;100.00;57188.72;4992067;28;45854;-75
2022/04/25 10:39:27;;;;;;;;;31.67;27.67;;;;;-147.59;100.00;57188.72;4992133;28;46335;-74
2022/04/25 10:44:36;;;;;;;;;29.00;27.67;;;;;-147.59;100.00;57188.72;4986121;28;45420;-75
2022/04/25 10:47:13;;;;;;;;;32.33;26.00;;;;;-147.59;100.00;57188.72;4974985;28;45726;-74
2022/04/25 10:49:58;;;;;;;;;28.67;27.00;;;;;-147.59;100.00;57188.72;4994283;28;45454;-76
2022/04/25 10:55:20;;;;;;;;;28.67;27.67;;;;;-147.59;100.00;57188.72;4993792;28;45503;-74
2022/04/25 10:58:07;;;;;;;;;29.67;27.67;;;;;-147.59;100.00;57188.72;4998578;28;45493;-74
2022/04/25 11:00:44;;;;;;;;;32.67;29.33;;;;;-147.59;100.00;57188.72;4999064;28;45373;-74
2022/04/25 11:03:12;;;;;;;;;27.00;27.00;;;;;-147.59;100.00;57188.72;4979118;28;48287;-74
2022/04/25 11:05:41;;;;;;;;;24.00;23.33;;;;;-147.59;100.00;57188.72;4997075;28;45527;-75
2022/04/25 11:08:16;;;;;;;;;34.67;27.67;;;;;-147.59;100.00;57188.72;4995194;28;45670;-75
2022/04/25 11:10:44;;;;;;;;;28.00;25.33;;;;;-147.59;100.00;57188.72;4996082;28;45383;-75
2022/04/25 11:13:10;;;;;;;;;25.33;25.00;;;;;-147.59;100.00;57188.72;4996908;28;45508;-75
2022/04/25 11:15:46;;;;;;;;;29.33;27.67;;;;;-147.59;100.00;57188.72;4995642;28;45387;-76
2022/04/25 11:21:05;;;;;;;;;21.00;21.00;;;;;-147.59;100.00;57188.72;5000124;28;45430;-74
2022/04/25 11:23:51;;;;;;;;;23.33;22.67;;;;;-147.59;100.00;57188.72;4998549;28;46485;-73
2022/04/25 11:26:22;;;;;;;;;24.67;21.00;;;;;-147.59;100.00;57188.72;5001533;28;45468;-74
2022/04/25 11:29:08;;;;;;;;;24.00;22.67;;;;;-147.59;100.00;57188.72;5001436;28;45333;-74
2022/04/25 11:31:38;;;;;;;;;19.33;19.00;;;;;-147.59;100.00;57188.72;4978760;28;45545;-73